VGSY/ZYL METAR and TAF weather

Enter ICAO airport designator
Station Type Date Time Source
VGSY METAR 2020/10/08 11:00 UTC NOAA

VGSY 081100Z 00000KT 4000 HZ SCT015 31/24 Q1006 NOSIG


Station Type Date Time Source
VGSY Decoded METAR 2020/10/08 11:00 UTC NOAA

Sylhet, Bangladesh (VGSY) 24-54N 091-53E 35M
Oct 08, 2020 - 07:00 AM EDT / 2020.10.08 1100 UTC
Wind: Calm:0
Visibility: 2 mile(s):0
Sky conditions: partly cloudy
Weather: haze
Temperature: 87 F (31 C)
Heat index: 95.7 F (35.4 C):1
Dew Point: 75 F (24 C)
Relative Humidity: 66%
Pressure (altimeter): 29.71 in. Hg (1006 hPa)
ob: VGSY 081100Z 00000KT 4000 HZ SCT015 31/24 Q1006 NOSIG
cycle: 11

Station Type Date Time Source
VGSY TAF 2011/08/08 06:00 UTC NOAA

TAF VGSY 080400Z 0806/0912 06005KT 5000 SCT012 BKN100
BECMG 0900/0902 09005KT 3500HZ SCT015 BKN100
TEMPO. 0806/0912 21020G30KT 2000 RA/TSRA BKN007 FEW025CB OVC080.

Example: see airport list